sensor_id;sensor_type;location;lat;lon;timestamp;temperature;humidity
38746;DHT22;24488;0.000;0.000;2023-02-28T00:02:21;20.40;33.00
38746;DHT22;24488;0.000;0.000;2023-02-28T00:04:47;20.40;32.50
38746;DHT22;24488;0.000;0.000;2023-02-28T00:07:18;20.40;32.90
38746;DHT22;24488;0.000;0.000;2023-02-28T00:09:44;20.40;33.00
38746;DHT22;24488;0.000;0.000;2023-02-28T00:12:09;20.40;32.90
38746;DHT22;24488;0.000;0.000;2023-02-28T00:14:38;20.40;32.40
38746;DHT22;24488;0.000;0.000;2023-02-28T00:17:04;20.40;32.40
38746;DHT22;24488;0.000;0.000;2023-02-28T00:19:29;20.40;32.90
38746;DHT22;24488;0.000;0.000;2023-02-28T00:21:55;20.40;32.90
38746;DHT22;24488;0.000;0.000;2023-02-28T00:24:20;20.40;32.90
38746;DHT22;24488;0.000;0.000;2023-02-28T00:26:46;20.40;32.40
38746;DHT22;24488;0.000;0.000;2023-02-28T00:29:11;20.40;32.90
38746;DHT22;24488;0.000;0.000;2023-02-28T00:31:37;20.40;32.90
38746;DHT22;24488;0.000;0.000;2023-02-28T00:34:02;20.50;32.90
38746;DHT22;24488;0.000;0.000;2023-02-28T00:36:28;20.40;32.40
38746;DHT22;24488;0.000;0.000;2023-02-28T00:38:53;20.40;32.90
38746;DHT22;24488;0.000;0.000;2023-02-28T00:41:19;20.40;32.90
38746;DHT22;24488;0.000;0.000;2023-02-28T00:43:45;20.40;32.90
38746;DHT22;24488;0.000;0.000;2023-02-28T00:46:10;20.40;32.50
38746;DHT22;24488;0.000;0.000;2023-02-28T00:48:36;20.40;32.90
38746;DHT22;24488;0.000;0.000;2023-02-28T00:51:01;20.40;32.90
38746;DHT22;24488;0.000;0.000;2023-02-28T00:53:27;20.40;32.90
38746;DHT22;24488;0.000;0.000;2023-02-28T00:55:53;20.40;32.40
38746;DHT22;24488;0.000;0.000;2023-02-28T00:58:19;20.40;32.90
38746;DHT22;24488;0.000;0.000;2023-02-28T01:00:44;20.40;32.80
38746;DHT22;24488;0.000;0.000;2023-02-28T01:03:14;20.40;32.90
38746;DHT22;24488;0.000;0.000;2023-02-28T01:05:41;20.40;32.40
38746;DHT22;24488;0.000;0.000;2023-02-28T01:08:06;20.40;32.90
38746;DHT22;24488;0.000;0.000;2023-02-28T01:10:32;20.40;32.80
38746;DHT22;24488;0.000;0.000;2023-02-28T01:12:57;20.40;32.80
38746;DHT22;24488;0.000;0.000;2023-02-28T01:15:23;20.40;32.80
38746;DHT22;24488;0.000;0.000;2023-02-28T01:17:49;20.40;32.40
38746;DHT22;24488;0.000;0.000;2023-02-28T01:20:14;20.40;32.90
38746;DHT22;24488;0.000;0.000;2023-02-28T01:22:40;20.40;32.90
38746;DHT22;24488;0.000;0.000;2023-02-28T01:25:06;21.10;33.20
38746;DHT22;24488;0.000;0.000;2023-02-28T01:27:33;20.40;32.40
38746;DHT22;24488;0.000;0.000;2023-02-28T01:29:58;20.40;32.90
38746;DHT22;24488;0.000;0.000;2023-02-28T01:32:24;20.40;32.80
38746;DHT22;24488;0.000;0.000;2023-02-28T01:34:49;20.40;32.80
38746;DHT22;24488;0.000;0.000;2023-02-28T01:37:15;20.30;32.30
38746;DHT22;24488;0.000;0.000;2023-02-28T01:39:41;20.40;32.80
38746;DHT22;24488;0.000;0.000;2023-02-28T01:42:08;20.40;32.80
38746;DHT22;24488;0.000;0.000;2023-02-28T01:47:38;20.40;32.30
38746;DHT22;24488;0.000;0.000;2023-02-28T01:50:06;20.40;32.80
38746;DHT22;24488;0.000;0.000;2023-02-28T01:52:34;20.40;32.80
38746;DHT22;24488;0.000;0.000;2023-02-28T01:55:00;20.40;32.80
38746;DHT22;24488;0.000;0.000;2023-02-28T01:57:29;20.40;32.30
38746;DHT22;24488;0.000;0.000;2023-02-28T02:00:04;20.30;32.70
38746;DHT22;24488;0.000;0.000;2023-02-28T02:02:34;20.30;32.70
38746;DHT22;24488;0.000;0.000;2023-02-28T02:07:38;20.40;32.30
38746;DHT22;24488;0.000;0.000;2023-02-28T02:10:13;20.30;32.70
38746;DHT22;24488;0.000;0.000;2023-02-28T02:29:32;20.30;32.70
38746;DHT22;24488;0.000;0.000;2023-02-28T02:32:13;20.30;32.70
38746;DHT22;24488;0.000;0.000;2023-02-28T02:34:48;20.30;32.70
38746;DHT22;24488;0.000;0.000;2023-02-28T02:37:29;20.30;32.20
38746;DHT22;24488;0.000;0.000;2023-02-28T02:40:17;20.30;32.70
38746;DHT22;24488;0.000;0.000;2023-02-28T02:42:47;20.30;32.70
38746;DHT22;24488;0.000;0.000;2023-02-28T02:45:19;20.30;32.70
38746;DHT22;24488;0.000;0.000;2023-02-28T02:47:49;20.30;32.20
38746;DHT22;24488;0.000;0.000;2023-02-28T02:50:17;20.30;32.70
38746;DHT22;24488;0.000;0.000;2023-02-28T02:52:48;20.30;32.60
38746;DHT22;24488;0.000;0.000;2023-02-28T02:55:17;20.30;32.70
38746;DHT22;24488;0.000;0.000;2023-02-28T03:00:12;20.30;32.70
38746;DHT22;24488;0.000;0.000;2023-02-28T03:02:41;20.30;32.70
38746;DHT22;24488;0.000;0.000;2023-02-28T03:05:12;20.30;32.70
38746;DHT22;24488;0.000;0.000;2023-02-28T03:07:42;20.30;32.20
38746;DHT22;24488;0.000;0.000;2023-02-28T03:12:53;20.30;32.60
38746;DHT22;24488;0.000;0.000;2023-02-28T03:15:28;20.30;32.70
38746;DHT22;24488;0.000;0.000;2023-02-28T03:25:36;20.30;32.60
38746;DHT22;24488;0.000;0.000;2023-02-28T03:31:19;20.30;32.70
38746;DHT22;24488;0.000;0.000;2023-02-28T03:33:50;20.30;32.70
38746;DHT22;24488;0.000;0.000;2023-02-28T03:36:21;20.30;32.10
38746;DHT22;24488;0.000;0.000;2023-02-28T03:38:51;20.30;32.60
38746;DHT22;24488;0.000;0.000;2023-02-28T03:41:21;20.30;32.60
38746;DHT22;24488;0.000;0.000;2023-02-28T03:43:49;20.30;32.60
38746;DHT22;24488;0.000;0.000;2023-02-28T03:46:18;20.30;32.10
38746;DHT22;24488;0.000;0.000;2023-02-28T03:48:48;20.30;32.70
38746;DHT22;24488;0.000;0.000;2023-02-28T03:51:17;20.30;32.60
38746;DHT22;24488;0.000;0.000;2023-02-28T03:53:46;20.30;32.60
38746;DHT22;24488;0.000;0.000;2023-02-28T03:56:24;20.30;32.10
38746;DHT22;24488;0.000;0.000;2023-02-28T03:59:02;20.30;32.60
38746;DHT22;24488;0.000;0.000;2023-02-28T04:01:31;20.30;32.60
38746;DHT22;24488;0.000;0.000;2023-02-28T04:04:00;20.30;32.60
38746;DHT22;24488;0.000;0.000;2023-02-28T04:06:27;20.30;32.20
38746;DHT22;24488;0.000;0.000;2023-02-28T04:08:52;20.30;32.60
38746;DHT22;24488;0.000;0.000;2023-02-28T04:14:01;20.20;32.60
38746;DHT22;24488;0.000;0.000;2023-02-28T04:16:27;20.20;32.10
38746;DHT22;24488;0.000;0.000;2023-02-28T04:18:53;20.30;32.60
38746;DHT22;24488;0.000;0.000;2023-02-28T04:21:19;20.30;32.60
38746;DHT22;24488;0.000;0.000;2023-02-28T04:23:47;20.20;32.60
38746;DHT22;24488;0.000;0.000;2023-02-28T04:26:13;20.20;32.00
38746;DHT22;24488;0.000;0.000;2023-02-28T04:28:38;20.20;32.50
38746;DHT22;24488;0.000;0.000;2023-02-28T04:31:04;20.80;32.90
38746;DHT22;24488;0.000;0.000;2023-02-28T04:33:30;20.20;32.50
38746;DHT22;24488;0.000;0.000;2023-02-28T04:35:57;20.20;32.00
38746;DHT22;24488;0.000;0.000;2023-02-28T04:38:24;20.20;32.50
38746;DHT22;24488;0.000;0.000;2023-02-28T04:40:50;20.20;32.50
38746;DHT22;24488;0.000;0.000;2023-02-28T04:43:15;20.20;32.50
38746;DHT22;24488;0.000;0.000;2023-02-28T04:45:41;20.20;32.00
38746;DHT22;24488;0.000;0.000;2023-02-28T04:48:06;20.20;32.50
38746;DHT22;24488;0.000;0.000;2023-02-28T04:50:32;20.20;32.50
38746;DHT22;24488;0.000;0.000;2023-02-28T04:52:58;20.20;32.50
38746;DHT22;24488;0.000;0.000;2023-02-28T04:55:23;20.20;32.50
38746;DHT22;24488;0.000;0.000;2023-02-28T04:57:49;20.20;32.00
38746;DHT22;24488;0.000;0.000;2023-02-28T05:00:15;20.20;32.50
38746;DHT22;24488;0.000;0.000;2023-02-28T05:02:42;20.20;32.50
38746;DHT22;24488;0.000;0.000;2023-02-28T05:05:07;20.20;32.50
38746;DHT22;24488;0.000;0.000;2023-02-28T05:07:33;20.20;32.00
38746;DHT22;24488;0.000;0.000;2023-02-28T05:09:59;20.20;32.50
38746;DHT22;24488;0.000;0.000;2023-02-28T05:12:24;20.20;33.10
38746;DHT22;24488;0.000;0.000;2023-02-28T05:14:50;20.20;32.50
38746;DHT22;24488;0.000;0.000;2023-02-28T05:17:15;20.20;32.00
38746;DHT22;24488;0.000;0.000;2023-02-28T05:19:41;20.20;32.50
38746;DHT22;24488;0.000;0.000;2023-02-28T05:22:12;20.20;32.50
38746;DHT22;24488;0.000;0.000;2023-02-28T05:24:40;20.20;32.50
38746;DHT22;24488;0.000;0.000;2023-02-28T05:27:07;20.20;32.00
38746;DHT22;24488;0.000;0.000;2023-02-28T05:29:33;20.20;32.50
38746;DHT22;24488;0.000;0.000;2023-02-28T05:31:59;20.20;32.50
38746;DHT22;24488;0.000;0.000;2023-02-28T05:34:25;20.20;32.50
38746;DHT22;24488;0.000;0.000;2023-02-28T05:36:50;20.20;32.00
38746;DHT22;24488;0.000;0.000;2023-02-28T05:39:16;20.20;32.50
38746;DHT22;24488;0.000;0.000;2023-02-28T05:41:42;20.20;32.50
38746;DHT22;24488;0.000;0.000;2023-02-28T05:44:08;20.20;32.50
38746;DHT22;24488;0.000;0.000;2023-02-28T05:46:34;20.20;32.00
38746;DHT22;24488;0.000;0.000;2023-02-28T05:48:59;20.20;32.50
38746;DHT22;24488;0.000;0.000;2023-02-28T05:51:26;20.20;32.50
38746;DHT22;24488;0.000;0.000;2023-02-28T05:53:51;20.20;32.50
38746;DHT22;24488;0.000;0.000;2023-02-28T05:56:17;20.20;32.00
38746;DHT22;24488;0.000;0.000;2023-02-28T05:58:42;20.10;32.40
38746;DHT22;24488;0.000;0.000;2023-02-28T06:03:57;20.20;32.40
38746;DHT22;24488;0.000;0.000;2023-02-28T06:06:24;20.20;31.90
38746;DHT22;24488;0.000;0.000;2023-02-28T06:08:49;20.20;32.40
38746;DHT22;24488;0.000;0.000;2023-02-28T06:11:15;20.10;32.40
38746;DHT22;24488;0.000;0.000;2023-02-28T06:13:40;20.20;32.50
38746;DHT22;24488;0.000;0.000;2023-02-28T06:16:07;20.20;31.90
38746;DHT22;24488;0.000;0.000;2023-02-28T06:18:33;20.20;31.90
38746;DHT22;24488;0.000;0.000;2023-02-28T06:20:59;20.10;32.30
38746;DHT22;24488;0.000;0.000;2023-02-28T06:23:24;20.20;32.40
38746;DHT22;24488;0.000;0.000;2023-02-28T06:25:50;20.10;32.30
38746;DHT22;24488;0.000;0.000;2023-02-28T06:28:15;20.10;31.90
38746;DHT22;24488;0.000;0.000;2023-02-28T06:30:41;20.10;32.40
38746;DHT22;24488;0.000;0.000;2023-02-28T06:33:07;20.10;32.30
38746;DHT22;24488;0.000;0.000;2023-02-28T06:35:32;20.10;32.40
38746;DHT22;24488;0.000;0.000;2023-02-28T06:37:58;20.10;31.90
38746;DHT22;24488;0.000;0.000;2023-02-28T06:40:23;20.10;32.40
38746;DHT22;24488;0.000;0.000;2023-02-28T06:42:49;20.10;32.40
38746;DHT22;24488;0.000;0.000;2023-02-28T06:45:14;20.10;32.40
38746;DHT22;24488;0.000;0.000;2023-02-28T06:47:40;20.10;31.90
38746;DHT22;24488;0.000;0.000;2023-02-28T06:50:07;20.10;32.40
38746;DHT22;24488;0.000;0.000;2023-02-28T06:52:34;20.10;32.40
38746;DHT22;24488;0.000;0.000;2023-02-28T06:55:06;20.10;32.30
38746;DHT22;24488;0.000;0.000;2023-02-28T06:57:32;20.10;31.90
38746;DHT22;24488;0.000;0.000;2023-02-28T06:59:59;20.10;32.40
38746;DHT22;24488;0.000;0.000;2023-02-28T07:02:26;20.10;32.40
38746;DHT22;24488;0.000;0.000;2023-02-28T07:04:52;20.10;32.40
38746;DHT22;24488;0.000;0.000;2023-02-28T07:07:17;20.10;31.90
38746;DHT22;24488;0.000;0.000;2023-02-28T07:09:43;20.10;32.30
38746;DHT22;24488;0.000;0.000;2023-02-28T07:12:09;20.10;32.30
38746;DHT22;24488;0.000;0.000;2023-02-28T07:14:36;20.10;32.30
38746;DHT22;24488;0.000;0.000;2023-02-28T07:17:02;20.10;31.90
38746;DHT22;24488;0.000;0.000;2023-02-28T07:19:28;20.10;32.40
38746;DHT22;24488;0.000;0.000;2023-02-28T07:21:54;20.10;32.30
38746;DHT22;24488;0.000;0.000;2023-02-28T07:24:20;20.10;32.90
38746;DHT22;24488;0.000;0.000;2023-02-28T07:26:45;20.10;31.90
38746;DHT22;24488;0.000;0.000;2023-02-28T07:29:11;20.10;32.40
38746;DHT22;24488;0.000;0.000;2023-02-28T07:31:36;20.10;32.30
38746;DHT22;24488;0.000;0.000;2023-02-28T07:34:02;20.00;32.20
38746;DHT22;24488;0.000;0.000;2023-02-28T07:36:28;20.10;31.80
38746;DHT22;24488;0.000;0.000;2023-02-28T07:38:53;20.10;32.30
38746;DHT22;24488;0.000;0.000;2023-02-28T07:41:20;20.10;32.30
38746;DHT22;24488;0.000;0.000;2023-02-28T07:43:46;20.10;32.20
38746;DHT22;24488;0.000;0.000;2023-02-28T07:46:13;20.10;32.30
38746;DHT22;24488;0.000;0.000;2023-02-28T07:48:43;20.10;31.80
38746;DHT22;24488;0.000;0.000;2023-02-28T07:51:09;20.10;32.20
38746;DHT22;24488;0.000;0.000;2023-02-28T07:53:35;20.10;32.20
38746;DHT22;24488;0.000;0.000;2023-02-28T07:56:01;20.00;32.20
38746;DHT22;24488;0.000;0.000;2023-02-28T07:58:28;20.00;31.70
38746;DHT22;24488;0.000;0.000;2023-02-28T08:00:54;20.10;32.20
38746;DHT22;24488;0.000;0.000;2023-02-28T08:03:21;20.10;32.20
38746;DHT22;24488;0.000;0.000;2023-02-28T08:05:47;20.00;32.20
38746;DHT22;24488;0.000;0.000;2023-02-28T08:08:14;20.10;31.80
38746;DHT22;24488;0.000;0.000;2023-02-28T08:10:40;20.10;32.30
38746;DHT22;24488;0.000;0.000;2023-02-28T08:13:05;20.10;32.20
38746;DHT22;24488;0.000;0.000;2023-02-28T08:15:31;20.10;32.20
38746;DHT22;24488;0.000;0.000;2023-02-28T08:17:57;20.10;31.70
38746;DHT22;24488;0.000;0.000;2023-02-28T08:20:23;20.10;32.20
38746;DHT22;24488;0.000;0.000;2023-02-28T08:22:49;20.10;32.20
38746;DHT22;24488;0.000;0.000;2023-02-28T08:25:14;20.10;32.30
38746;DHT22;24488;0.000;0.000;2023-02-28T08:27:40;20.10;31.80
38746;DHT22;24488;0.000;0.000;2023-02-28T08:30:06;20.10;32.30
38746;DHT22;24488;0.000;0.000;2023-02-28T08:32:32;20.10;32.30
38746;DHT22;24488;0.000;0.000;2023-02-28T08:34:58;20.10;32.30
38746;DHT22;24488;0.000;0.000;2023-02-28T08:37:24;20.00;31.80
38746;DHT22;24488;0.000;0.000;2023-02-28T08:39:50;20.00;32.20
38746;DHT22;24488;0.000;0.000;2023-02-28T08:42:16;20.00;32.20
38746;DHT22;24488;0.000;0.000;2023-02-28T08:44:43;20.00;32.20
38746;DHT22;24488;0.000;0.000;2023-02-28T08:47:08;20.00;31.70
38746;DHT22;24488;0.000;0.000;2023-02-28T08:49:34;20.00;32.20
38746;DHT22;24488;0.000;0.000;2023-02-28T08:51:59;20.00;32.20
38746;DHT22;24488;0.000;0.000;2023-02-28T08:54:25;20.00;32.20
38746;DHT22;24488;0.000;0.000;2023-02-28T08:56:50;20.00;31.70
38746;DHT22;24488;0.000;0.000;2023-02-28T08:59:16;20.00;32.20
38746;DHT22;24488;0.000;0.000;2023-02-28T09:01:42;20.00;32.20
38746;DHT22;24488;0.000;0.000;2023-02-28T09:04:08;20.00;32.20
38746;DHT22;24488;0.000;0.000;2023-02-28T09:06:36;20.00;31.70
38746;DHT22;24488;0.000;0.000;2023-02-28T09:09:02;20.00;32.20
38746;DHT22;24488;0.000;0.000;2023-02-28T09:11:31;20.00;32.10
38746;DHT22;24488;0.000;0.000;2023-02-28T09:13:57;20.00;32.10
38746;DHT22;24488;0.000;0.000;2023-02-28T09:16:24;20.00;31.60
38746;DHT22;24488;0.000;0.000;2023-02-28T09:18:49;20.00;32.10
38746;DHT22;24488;0.000;0.000;2023-02-28T09:21:16;20.00;32.10
38746;DHT22;24488;0.000;0.000;2023-02-28T09:23:43;20.00;32.00
38746;DHT22;24488;0.000;0.000;2023-02-28T09:26:15;20.00;32.00
38746;DHT22;24488;0.000;0.000;2023-02-28T09:28:42;20.00;31.60
38746;DHT22;24488;0.000;0.000;2023-02-28T09:31:18;20.00;32.10
38746;DHT22;24488;0.000;0.000;2023-02-28T09:33:48;20.00;32.00
38746;DHT22;24488;0.000;0.000;2023-02-28T09:36:15;20.00;32.00
38746;DHT22;24488;0.000;0.000;2023-02-28T09:38:40;20.00;31.50
38746;DHT22;24488;0.000;0.000;2023-02-28T09:41:48;20.00;32.00
38746;DHT22;24488;0.000;0.000;2023-02-28T09:44:00;20.00;32.00
38746;DHT22;24488;0.000;0.000;2023-02-28T09:46:32;20.00;31.60
38746;DHT22;24488;0.000;0.000;2023-02-28T09:49:00;20.00;32.00
38746;DHT22;24488;0.000;0.000;2023-02-28T09:51:40;20.10;32.10
38746;DHT22;24488;0.000;0.000;2023-02-28T09:54:15;20.00;32.00
38746;DHT22;24488;0.000;0.000;2023-02-28T09:56:44;20.00;31.60
38746;DHT22;24488;0.000;0.000;2023-02-28T10:07:15;20.00;31.60
38746;DHT22;24488;0.000;0.000;2023-02-28T10:09:46;20.00;32.10
38746;DHT22;24488;0.000;0.000;2023-02-28T10:12:16;20.00;32.10
38746;DHT22;24488;0.000;0.000;2023-02-28T10:14:44;20.00;32.10
38746;DHT22;24488;0.000;0.000;2023-02-28T10:17:12;20.00;31.60
38746;DHT22;24488;0.000;0.000;2023-02-28T10:22:16;20.00;32.10
38746;DHT22;24488;0.000;0.000;2023-02-28T10:24:51;20.00;32.10
38746;DHT22;24488;0.000;0.000;2023-02-28T10:27:21;20.00;31.60
38746;DHT22;24488;0.000;0.000;2023-02-28T10:29:49;20.00;32.10
38746;DHT22;24488;0.000;0.000;2023-02-28T10:32:20;20.00;32.10
38746;DHT22;24488;0.000;0.000;2023-02-28T10:34:52;20.00;32.10
38746;DHT22;24488;0.000;0.000;2023-02-28T10:37:20;20.00;31.60
38746;DHT22;24488;0.000;0.000;2023-02-28T10:39:46;20.00;32.00
38746;DHT22;24488;0.000;0.000;2023-02-28T10:42:23;20.00;32.10
38746;DHT22;24488;0.000;0.000;2023-02-28T10:45:04;20.00;32.00
38746;DHT22;24488;0.000;0.000;2023-02-28T10:47:31;20.00;31.60
38746;DHT22;24488;0.000;0.000;2023-02-28T10:49:59;20.00;32.00
38746;DHT22;24488;0.000;0.000;2023-02-28T10:52:37;20.00;32.00
38746;DHT22;24488;0.000;0.000;2023-02-28T10:55:15;20.00;32.00
38746;DHT22;24488;0.000;0.000;2023-02-28T10:57:45;20.00;31.50
38746;DHT22;24488;0.000;0.000;2023-02-28T11:00:20;20.00;32.00
38746;DHT22;24488;0.000;0.000;2023-02-28T11:02:52;20.00;31.90
38746;DHT22;24488;0.000;0.000;2023-02-28T11:05:28;20.00;31.90
38746;DHT22;24488;0.000;0.000;2023-02-28T11:07:57;20.00;31.50
38746;DHT22;24488;0.000;0.000;2023-02-28T11:10:28;20.00;31.90
38746;DHT22;24488;0.000;0.000;2023-02-28T11:12:56;20.00;32.00
38746;DHT22;24488;0.000;0.000;2023-02-28T11:17:55;20.00;31.40
38746;DHT22;24488;0.000;0.000;2023-02-28T11:20:29;20.00;31.90
38746;DHT22;24488;0.000;0.000;2023-02-28T11:22:56;20.00;31.80
38746;DHT22;24488;0.000;0.000;2023-02-28T11:25:23;20.00;31.80
38746;DHT22;24488;0.000;0.000;2023-02-28T11:27:55;20.00;31.40
38746;DHT22;24488;0.000;0.000;2023-02-28T11:30:23;20.00;31.90
38746;DHT22;24488;0.000;0.000;2023-02-28T11:32:49;20.00;31.90
38746;DHT22;24488;0.000;0.000;2023-02-28T11:35:31;20.00;31.90
38746;DHT22;24488;0.000;0.000;2023-02-28T11:37:59;20.00;31.50
38746;DHT22;24488;0.000;0.000;2023-02-28T11:40:36;20.00;31.90
38746;DHT22;24488;0.000;0.000;2023-02-28T11:43:34;20.00;31.90
38746;DHT22;24488;0.000;0.000;2023-02-28T11:51:41;20.00;32.00
38746;DHT22;24488;0.000;0.000;2023-02-28T11:54:20;20.00;32.00
38746;DHT22;24488;0.000;0.000;2023-02-28T11:56:58;20.00;31.50
38746;DHT22;24488;0.000;0.000;2023-02-28T11:59:38;20.00;32.00
38746;DHT22;24488;0.000;0.000;2023-02-28T12:05:21;20.00;32.00
38746;DHT22;24488;0.000;0.000;2023-02-28T12:07:55;20.00;31.50
38746;DHT22;24488;0.000;0.000;2023-02-28T12:10:28;20.00;32.00
38746;DHT22;24488;0.000;0.000;2023-02-28T12:20:58;20.00;31.90
38746;DHT22;24488;0.000;0.000;2023-02-28T12:23:48;20.00;31.90
38746;DHT22;24488;0.000;0.000;2023-02-28T12:28:57;20.00;31.50
38746;DHT22;24488;0.000;0.000;2023-02-28T12:31:29;20.00;32.00
38746;DHT22;24488;0.000;0.000;2023-02-28T12:33:59;20.00;31.90
38746;DHT22;24488;0.000;0.000;2023-02-28T12:36:29;20.00;31.90
38746;DHT22;24488;0.000;0.000;2023-02-28T12:39:05;20.00;31.40
38746;DHT22;24488;0.000;0.000;2023-02-28T12:44:13;19.90;31.80
38746;DHT22;24488;0.000;0.000;2023-02-28T12:46:42;20.00;31.80
38746;DHT22;24488;0.000;0.000;2023-02-28T12:49:15;20.00;31.40
38746;DHT22;24488;0.000;0.000;2023-02-28T12:51:43;20.00;31.80
38746;DHT22;24488;0.000;0.000;2023-02-28T12:54:15;20.00;31.80
38746;DHT22;24488;0.000;0.000;2023-02-28T12:57:00;20.00;31.40
38746;DHT22;24488;0.000;0.000;2023-02-28T12:59:39;20.00;31.80
38746;DHT22;24488;0.000;0.000;2023-02-28T13:02:33;20.00;31.80
38746;DHT22;24488;0.000;0.000;2023-02-28T13:07:51;20.00;31.40
38746;DHT22;24488;0.000;0.000;2023-02-28T13:10:47;20.00;31.80
38746;DHT22;24488;0.000;0.000;2023-02-28T13:13:20;20.00;31.80
38746;DHT22;24488;0.000;0.000;2023-02-28T13:18:45;20.00;31.40
38746;DHT22;24488;0.000;0.000;2023-02-28T13:21:28;20.00;32.50
38746;DHT22;24488;0.000;0.000;2023-02-28T13:26:22;20.00;31.90
38746;DHT22;24488;0.000;0.000;2023-02-28T13:31:14;20.00;31.90
38746;DHT22;24488;0.000;0.000;2023-02-28T13:36:25;20.00;31.90
38746;DHT22;24488;0.000;0.000;2023-02-28T13:39:01;20.00;31.40
38746;DHT22;24488;0.000;0.000;2023-02-28T13:47:21;20.00;31.90
38746;DHT22;24488;0.000;0.000;2023-02-28T13:54:53;20.00;31.90
38746;DHT22;24488;0.000;0.000;2023-02-28T13:57:48;20.00;31.40
38746;DHT22;24488;0.000;0.000;2023-02-28T14:11:42;20.00;31.90
38746;DHT22;24488;0.000;0.000;2023-02-28T14:14:09;20.00;31.80
38746;DHT22;24488;0.000;0.000;2023-02-28T14:16:55;20.00;31.80
38746;DHT22;24488;0.000;0.000;2023-02-28T14:19:27;20.00;31.30
38746;DHT22;24488;0.000;0.000;2023-02-28T14:32:35;20.00;31.80
38746;DHT22;24488;0.000;0.000;2023-02-28T14:37:37;19.90;31.30
38746;DHT22;24488;0.000;0.000;2023-02-28T14:40:04;19.90;31.80
38746;DHT22;24488;0.000;0.000;2023-02-28T14:42:37;19.90;31.80
38746;DHT22;24488;0.000;0.000;2023-02-28T14:45:17;20.00;31.80
38746;DHT22;24488;0.000;0.000;2023-02-28T14:47:43;19.90;31.30
38746;DHT22;24488;0.000;0.000;2023-02-28T14:50:17;20.00;31.80
38746;DHT22;24488;0.000;0.000;2023-02-28T14:52:43;20.00;31.80
38746;DHT22;24488;0.000;0.000;2023-02-28T14:55:14;20.00;31.80
38746;DHT22;24488;0.000;0.000;2023-02-28T14:57:50;19.90;31.30
38746;DHT22;24488;0.000;0.000;2023-02-28T15:00:22;19.90;31.80
38746;DHT22;24488;0.000;0.000;2023-02-28T15:02:52;20.00;31.80
38746;DHT22;24488;0.000;0.000;2023-02-28T15:05:20;19.90;31.70
38746;DHT22;24488;0.000;0.000;2023-02-28T15:08:03;19.90;31.30
38746;DHT22;24488;0.000;0.000;2023-02-28T15:10:29;19.90;31.70
38746;DHT22;24488;0.000;0.000;2023-02-28T15:12:57;19.90;31.70
38746;DHT22;24488;0.000;0.000;2023-02-28T15:18:04;19.90;31.20
38746;DHT22;24488;0.000;0.000;2023-02-28T15:20:31;19.90;31.70
38746;DHT22;24488;0.000;0.000;2023-02-28T15:22:57;19.90;31.70
38746;DHT22;24488;0.000;0.000;2023-02-28T15:25:23;20.00;31.70
38746;DHT22;24488;0.000;0.000;2023-02-28T15:27:49;20.00;31.20
38746;DHT22;24488;0.000;0.000;2023-02-28T15:30:17;20.00;31.70
38746;DHT22;24488;0.000;0.000;2023-02-28T15:32:45;20.00;31.70
38746;DHT22;24488;0.000;0.000;2023-02-28T15:35:29;20.00;31.70
38746;DHT22;24488;0.000;0.000;2023-02-28T15:40:52;20.00;31.70
38746;DHT22;24488;0.000;0.000;2023-02-28T15:43:26;20.00;31.70
38746;DHT22;24488;0.000;0.000;2023-02-28T15:50:55;20.00;31.80
38746;DHT22;24488;0.000;0.000;2023-02-28T15:53:28;20.70;32.10
38746;DHT22;24488;0.000;0.000;2023-02-28T15:55:58;20.00;31.80
38746;DHT22;24488;0.000;0.000;2023-02-28T15:58:29;20.00;31.30
38746;DHT22;24488;0.000;0.000;2023-02-28T16:01:15;20.00;31.90
38746;DHT22;24488;0.000;0.000;2023-02-28T16:03:48;20.00;31.80
38746;DHT22;24488;0.000;0.000;2023-02-28T16:09:01;20.00;31.40
38746;DHT22;24488;0.000;0.000;2023-02-28T16:11:27;20.00;31.90
38746;DHT22;24488;0.000;0.000;2023-02-28T16:13:53;20.00;31.80
38746;DHT22;24488;0.000;0.000;2023-02-28T16:16:23;20.00;31.90
38746;DHT22;24488;0.000;0.000;2023-02-28T16:18:50;20.00;31.40
38746;DHT22;24488;0.000;0.000;2023-02-28T16:21:16;20.00;31.90
38746;DHT22;24488;0.000;0.000;2023-02-28T16:23:41;20.00;31.90
38746;DHT22;24488;0.000;0.000;2023-02-28T16:26:07;20.00;31.90
38746;DHT22;24488;0.000;0.000;2023-02-28T16:28:33;20.00;31.40
38746;DHT22;24488;0.000;0.000;2023-02-28T16:31:00;20.00;31.90
38746;DHT22;24488;0.000;0.000;2023-02-28T16:33:28;20.00;31.80
38746;DHT22;24488;0.000;0.000;2023-02-28T16:35:54;20.00;31.80
38746;DHT22;24488;0.000;0.000;2023-02-28T16:38:20;20.00;31.40
38746;DHT22;24488;0.000;0.000;2023-02-28T16:40:46;20.00;31.90
38746;DHT22;24488;0.000;0.000;2023-02-28T16:43:15;20.00;31.80
38746;DHT22;24488;0.000;0.000;2023-02-28T16:45:46;20.00;31.80
38746;DHT22;24488;0.000;0.000;2023-02-28T16:48:13;20.00;31.40
38746;DHT22;24488;0.000;0.000;2023-02-28T16:50:39;20.00;31.80
38746;DHT22;24488;0.000;0.000;2023-02-28T16:53:05;20.00;31.80
38746;DHT22;24488;0.000;0.000;2023-02-28T16:55:30;20.00;31.80
38746;DHT22;24488;0.000;0.000;2023-02-28T16:57:57;20.00;31.30
38746;DHT22;24488;0.000;0.000;2023-02-28T17:00:24;20.00;31.80
38746;DHT22;24488;0.000;0.000;2023-02-28T17:02:50;20.00;31.80
38746;DHT22;24488;0.000;0.000;2023-02-28T17:05:16;20.00;31.80
38746;DHT22;24488;0.000;0.000;2023-02-28T17:07:44;20.00;31.30
38746;DHT22;24488;0.000;0.000;2023-02-28T17:10:12;19.90;31.80
38746;DHT22;24488;0.000;0.000;2023-02-28T17:12:45;20.00;31.70
38746;DHT22;24488;0.000;0.000;2023-02-28T17:15:11;20.00;31.70
38746;DHT22;24488;0.000;0.000;2023-02-28T17:17:39;20.00;31.20
38746;DHT22;24488;0.000;0.000;2023-02-28T17:20:05;20.00;31.70
38746;DHT22;24488;0.000;0.000;2023-02-28T17:22:31;20.00;31.70
38746;DHT22;24488;0.000;0.000;2023-02-28T17:24:57;20.00;31.70
38746;DHT22;24488;0.000;0.000;2023-02-28T17:27:24;20.00;31.20
38746;DHT22;24488;0.000;0.000;2023-02-28T17:29:50;20.00;31.70
38746;DHT22;24488;0.000;0.000;2023-02-28T17:32:16;20.00;31.70
38746;DHT22;24488;0.000;0.000;2023-02-28T17:34:41;20.00;31.70
38746;DHT22;24488;0.000;0.000;2023-02-28T17:37:07;20.00;31.20
38746;DHT22;24488;0.000;0.000;2023-02-28T17:39:33;20.00;31.70
38746;DHT22;24488;0.000;0.000;2023-02-28T17:41:58;20.00;31.70
38746;DHT22;24488;0.000;0.000;2023-02-28T17:44:24;20.00;31.80
38746;DHT22;24488;0.000;0.000;2023-02-28T17:46:50;20.10;31.80
38746;DHT22;24488;0.000;0.000;2023-02-28T17:49:17;20.00;31.30
38746;DHT22;24488;0.000;0.000;2023-02-28T17:51:43;20.00;31.80
38746;DHT22;24488;0.000;0.000;2023-02-28T17:54:09;20.00;31.80
38746;DHT22;24488;0.000;0.000;2023-02-28T17:56:34;20.00;31.80
38746;DHT22;24488;0.000;0.000;2023-02-28T17:59:00;20.00;31.40
38746;DHT22;24488;0.000;0.000;2023-02-28T18:01:26;20.00;31.80
38746;DHT22;24488;0.000;0.000;2023-02-28T18:03:52;20.00;31.80
38746;DHT22;24488;0.000;0.000;2023-02-28T18:06:28;20.00;31.80
38746;DHT22;24488;0.000;0.000;2023-02-28T18:08:58;20.00;31.40
38746;DHT22;24488;0.000;0.000;2023-02-28T18:11:24;20.00;32.50
38746;DHT22;24488;0.000;0.000;2023-02-28T18:13:51;20.00;31.90
38746;DHT22;24488;0.000;0.000;2023-02-28T18:16:19;20.00;31.90